sensor_id;sensor_type;location;lat;lon;timestamp;temperature;humidity
4725;DHT22;2376;53.544;10.226;2023-12-07T00:01:53;1.90;99.90
4725;DHT22;2376;53.544;10.226;2023-12-07T00:04:21;1.90;99.90
4725;DHT22;2376;53.544;10.226;2023-12-07T00:06:48;1.90;99.90
4725;DHT22;2376;53.544;10.226;2023-12-07T00:09:14;1.90;99.90
4725;DHT22;2376;53.544;10.226;2023-12-07T00:11:41;1.90;99.90
4725;DHT22;2376;53.544;10.226;2023-12-07T00:14:08;1.80;99.90
4725;DHT22;2376;53.544;10.226;2023-12-07T00:16:35;1.80;99.90
4725;DHT22;2376;53.544;10.226;2023-12-07T00:19:01;1.90;99.90
4725;DHT22;2376;53.544;10.226;2023-12-07T00:21:29;1.80;99.90
4725;DHT22;2376;53.544;10.226;2023-12-07T00:23:56;1.80;99.90
4725;DHT22;2376;53.544;10.226;2023-12-07T00:26:23;1.90;99.90
4725;DHT22;2376;53.544;10.226;2023-12-07T00:28:49;1.90;99.90
4725;DHT22;2376;53.544;10.226;2023-12-07T00:31:16;1.90;99.90
4725;DHT22;2376;53.544;10.226;2023-12-07T00:33:44;1.80;99.90
4725;DHT22;2376;53.544;10.226;2023-12-07T00:36:11;1.80;99.90
4725;DHT22;2376;53.544;10.226;2023-12-07T00:38:39;1.80;99.90
4725;DHT22;2376;53.544;10.226;2023-12-07T00:41:07;1.80;99.90
4725;DHT22;2376;53.544;10.226;2023-12-07T00:43:34;1.70;99.90
4725;DHT22;2376;53.544;10.226;2023-12-07T00:46:00;1.80;99.90
4725;DHT22;2376;53.544;10.226;2023-12-07T00:48:27;1.70;99.90
4725;DHT22;2376;53.544;10.226;2023-12-07T00:50:54;1.80;99.90
4725;DHT22;2376;53.544;10.226;2023-12-07T00:53:21;1.80;99.90
4725;DHT22;2376;53.544;10.226;2023-12-07T00:55:49;1.80;99.90
4725;DHT22;2376;53.544;10.226;2023-12-07T00:58:15;1.80;99.90
4725;DHT22;2376;53.544;10.226;2023-12-07T01:00:42;1.80;99.90
4725;DHT22;2376;53.544;10.226;2023-12-07T01:03:09;1.90;99.90
4725;DHT22;2376;53.544;10.226;2023-12-07T01:05:36;1.80;99.90
4725;DHT22;2376;53.544;10.226;2023-12-07T01:08:03;1.80;99.90
4725;DHT22;2376;53.544;10.226;2023-12-07T01:10:29;1.80;99.90
4725;DHT22;2376;53.544;10.226;2023-12-07T01:12:58;1.80;99.90
4725;DHT22;2376;53.544;10.226;2023-12-07T01:15:24;1.80;99.90
4725;DHT22;2376;53.544;10.226;2023-12-07T01:17:51;1.80;99.90
4725;DHT22;2376;53.544;10.226;2023-12-07T01:20:18;1.80;99.90
4725;DHT22;2376;53.544;10.226;2023-12-07T01:22:45;1.90;99.90
4725;DHT22;2376;53.544;10.226;2023-12-07T01:25:12;1.80;99.90
4725;DHT22;2376;53.544;10.226;2023-12-07T01:27:42;1.80;99.90
4725;DHT22;2376;53.544;10.226;2023-12-07T01:30:10;1.80;99.90
4725;DHT22;2376;53.544;10.226;2023-12-07T01:32:37;1.80;99.90
4725;DHT22;2376;53.544;10.226;2023-12-07T01:35:04;1.80;99.90
4725;DHT22;2376;53.544;10.226;2023-12-07T01:37:31;1.80;99.90
4725;DHT22;2376;53.544;10.226;2023-12-07T01:39:58;1.80;99.90
4725;DHT22;2376;53.544;10.226;2023-12-07T01:42:25;1.80;99.90
4725;DHT22;2376;53.544;10.226;2023-12-07T01:44:51;1.80;99.90
4725;DHT22;2376;53.544;10.226;2023-12-07T01:47:20;1.70;99.90
4725;DHT22;2376;53.544;10.226;2023-12-07T01:49:47;1.80;99.90
4725;DHT22;2376;53.544;10.226;2023-12-07T01:52:14;1.80;99.90
4725;DHT22;2376;53.544;10.226;2023-12-07T01:54:41;1.80;99.90
4725;DHT22;2376;53.544;10.226;2023-12-07T01:57:08;1.80;99.90
4725;DHT22;2376;53.544;10.226;2023-12-07T01:59:35;1.80;99.90
4725;DHT22;2376;53.544;10.226;2023-12-07T02:02:02;1.80;99.90
4725;DHT22;2376;53.544;10.226;2023-12-07T02:04:30;1.80;99.90
4725;DHT22;2376;53.544;10.226;2023-12-07T02:07:00;1.90;99.90
4725;DHT22;2376;53.544;10.226;2023-12-07T02:09:27;1.90;99.90
4725;DHT22;2376;53.544;10.226;2023-12-07T02:11:54;1.90;99.90
4725;DHT22;2376;53.544;10.226;2023-12-07T02:14:21;1.90;99.90
4725;DHT22;2376;53.544;10.226;2023-12-07T02:16:50;1.90;99.90
4725;DHT22;2376;53.544;10.226;2023-12-07T02:19:35;1.90;99.90
4725;DHT22;2376;53.544;10.226;2023-12-07T02:22:12;1.90;99.90
4725;DHT22;2376;53.544;10.226;2023-12-07T02:24:47;1.90;99.90
4725;DHT22;2376;53.544;10.226;2023-12-07T02:27:15;1.90;99.90
4725;DHT22;2376;53.544;10.226;2023-12-07T02:29:42;1.90;99.90
4725;DHT22;2376;53.544;10.226;2023-12-07T02:32:09;1.90;99.90
4725;DHT22;2376;53.544;10.226;2023-12-07T02:34:35;1.90;99.90
4725;DHT22;2376;53.544;10.226;2023-12-07T02:37:03;1.90;99.90
4725;DHT22;2376;53.544;10.226;2023-12-07T02:39:31;1.90;99.90
4725;DHT22;2376;53.544;10.226;2023-12-07T02:41:58;1.90;99.90
4725;DHT22;2376;53.544;10.226;2023-12-07T02:44:26;1.90;99.90
4725;DHT22;2376;53.544;10.226;2023-12-07T02:46:53;1.90;99.90
4725;DHT22;2376;53.544;10.226;2023-12-07T02:49:20;1.90;99.90
4725;DHT22;2376;53.544;10.226;2023-12-07T02:51:46;1.90;99.90
4725;DHT22;2376;53.544;10.226;2023-12-07T02:54:13;1.90;99.90
4725;DHT22;2376;53.544;10.226;2023-12-07T02:56:40;1.90;99.90
4725;DHT22;2376;53.544;10.226;2023-12-07T02:59:06;1.90;99.90
4725;DHT22;2376;53.544;10.226;2023-12-07T03:01:34;1.90;99.90
4725;DHT22;2376;53.544;10.226;2023-12-07T03:04:01;1.90;99.90
4725;DHT22;2376;53.544;10.226;2023-12-07T03:06:28;1.90;99.90
4725;DHT22;2376;53.544;10.226;2023-12-07T03:08:55;1.90;99.90
4725;DHT22;2376;53.544;10.226;2023-12-07T03:11:22;1.90;99.90
4725;DHT22;2376;53.544;10.226;2023-12-07T03:13:49;1.90;99.90
4725;DHT22;2376;53.544;10.226;2023-12-07T03:16:16;1.90;99.90
4725;DHT22;2376;53.544;10.226;2023-12-07T03:18:44;1.90;99.90
4725;DHT22;2376;53.544;10.226;2023-12-07T03:21:10;1.90;99.90
4725;DHT22;2376;53.544;10.226;2023-12-07T03:23:37;1.90;99.90
4725;DHT22;2376;53.544;10.226;2023-12-07T03:26:04;1.90;99.90
4725;DHT22;2376;53.544;10.226;2023-12-07T03:28:31;1.90;99.90
4725;DHT22;2376;53.544;10.226;2023-12-07T03:30:58;1.90;99.90
4725;DHT22;2376;53.544;10.226;2023-12-07T03:33:24;1.90;99.90
4725;DHT22;2376;53.544;10.226;2023-12-07T03:35:52;1.90;99.90
4725;DHT22;2376;53.544;10.226;2023-12-07T03:38:19;1.90;99.90
4725;DHT22;2376;53.544;10.226;2023-12-07T03:40:45;1.90;99.90
4725;DHT22;2376;53.544;10.226;2023-12-07T03:43:13;1.90;99.90
4725;DHT22;2376;53.544;10.226;2023-12-07T03:45:40;1.90;99.90
4725;DHT22;2376;53.544;10.226;2023-12-07T03:48:06;1.90;99.90
4725;DHT22;2376;53.544;10.226;2023-12-07T03:50:33;1.90;99.90
4725;DHT22;2376;53.544;10.226;2023-12-07T03:53:01;1.90;99.90
4725;DHT22;2376;53.544;10.226;2023-12-07T03:55:28;1.90;99.90
4725;DHT22;2376;53.544;10.226;2023-12-07T03:57:54;1.90;99.90
4725;DHT22;2376;53.544;10.226;2023-12-07T04:00:21;1.90;99.90
4725;DHT22;2376;53.544;10.226;2023-12-07T04:02:48;1.90;99.90
4725;DHT22;2376;53.544;10.226;2023-12-07T04:05:14;1.90;99.90
4725;DHT22;2376;53.544;10.226;2023-12-07T04:07:41;1.90;99.90
4725;DHT22;2376;53.544;10.226;2023-12-07T04:10:10;1.90;99.90
4725;DHT22;2376;53.544;10.226;2023-12-07T04:12:37;1.90;99.90
4725;DHT22;2376;53.544;10.226;2023-12-07T04:15:04;1.90;99.90
4725;DHT22;2376;53.544;10.226;2023-12-07T04:17:31;1.90;99.90
4725;DHT22;2376;53.544;10.226;2023-12-07T04:19:58;1.90;99.90
4725;DHT22;2376;53.544;10.226;2023-12-07T04:22:24;1.90;99.90
4725;DHT22;2376;53.544;10.226;2023-12-07T04:24:51;1.90;99.90
4725;DHT22;2376;53.544;10.226;2023-12-07T04:27:19;1.90;99.90
4725;DHT22;2376;53.544;10.226;2023-12-07T04:29:46;1.90;99.90
4725;DHT22;2376;53.544;10.226;2023-12-07T04:32:13;1.90;99.90
4725;DHT22;2376;53.544;10.226;2023-12-07T04:34:39;1.90;99.90
4725;DHT22;2376;53.544;10.226;2023-12-07T04:37:06;1.90;99.90
4725;DHT22;2376;53.544;10.226;2023-12-07T04:39:33;1.90;99.90
4725;DHT22;2376;53.544;10.226;2023-12-07T04:42:00;1.90;99.90
4725;DHT22;2376;53.544;10.226;2023-12-07T04:44:28;1.90;99.90
4725;DHT22;2376;53.544;10.226;2023-12-07T04:46:55;1.90;99.90
4725;DHT22;2376;53.544;10.226;2023-12-07T04:49:21;1.90;99.90
4725;DHT22;2376;53.544;10.226;2023-12-07T04:51:47;1.90;99.90
4725;DHT22;2376;53.544;10.226;2023-12-07T04:54:14;1.90;99.90
4725;DHT22;2376;53.544;10.226;2023-12-07T04:56:41;1.90;99.90
4725;DHT22;2376;53.544;10.226;2023-12-07T04:59:08;1.90;99.90
4725;DHT22;2376;53.544;10.226;2023-12-07T05:01:37;1.90;99.90
4725;DHT22;2376;53.544;10.226;2023-12-07T05:04:04;1.90;99.90
4725;DHT22;2376;53.544;10.226;2023-12-07T05:06:30;1.90;99.90
4725;DHT22;2376;53.544;10.226;2023-12-07T05:08:57;1.90;99.90
4725;DHT22;2376;53.544;10.226;2023-12-07T05:11:24;1.90;99.90
4725;DHT22;2376;53.544;10.226;2023-12-07T05:13:51;1.90;99.90
4725;DHT22;2376;53.544;10.226;2023-12-07T05:16:18;1.90;99.90
4725;DHT22;2376;53.544;10.226;2023-12-07T05:18:46;1.90;99.90
4725;DHT22;2376;53.544;10.226;2023-12-07T05:21:12;1.90;99.90
4725;DHT22;2376;53.544;10.226;2023-12-07T05:23:39;1.90;99.90
4725;DHT22;2376;53.544;10.226;2023-12-07T05:26:06;1.90;99.90
4725;DHT22;2376;53.544;10.226;2023-12-07T05:28:33;1.90;99.90
4725;DHT22;2376;53.544;10.226;2023-12-07T05:31:00;1.90;99.90
4725;DHT22;2376;53.544;10.226;2023-12-07T05:33:26;1.90;99.90
4725;DHT22;2376;53.544;10.226;2023-12-07T05:35:55;1.90;99.90
4725;DHT22;2376;53.544;10.226;2023-12-07T05:38:21;1.90;99.90
4725;DHT22;2376;53.544;10.226;2023-12-07T05:40:48;1.90;99.90
4725;DHT22;2376;53.544;10.226;2023-12-07T05:43:15;1.90;99.90
4725;DHT22;2376;53.544;10.226;2023-12-07T05:45:42;1.90;99.90
4725;DHT22;2376;53.544;10.226;2023-12-07T05:48:09;1.90;99.90
4725;DHT22;2376;53.544;10.226;2023-12-07T05:50:36;1.90;99.90
4725;DHT22;2376;53.544;10.226;2023-12-07T05:53:06;1.90;99.90
4725;DHT22;2376;53.544;10.226;2023-12-07T05:55:33;1.90;99.90
4725;DHT22;2376;53.544;10.226;2023-12-07T05:57:59;1.90;99.90
4725;DHT22;2376;53.544;10.226;2023-12-07T06:00:26;1.90;99.90
4725;DHT22;2376;53.544;10.226;2023-12-07T06:02:54;1.90;99.90
4725;DHT22;2376;53.544;10.226;2023-12-07T06:05:22;1.90;99.90
4725;DHT22;2376;53.544;10.226;2023-12-07T06:07:49;1.90;99.90
4725;DHT22;2376;53.544;10.226;2023-12-07T06:10:17;1.90;99.90
4725;DHT22;2376;53.544;10.226;2023-12-07T06:12:44;1.90;99.90
4725;DHT22;2376;53.544;10.226;2023-12-07T06:15:10;1.90;99.90
4725;DHT22;2376;53.544;10.226;2023-12-07T06:17:37;2.00;99.90
4725;DHT22;2376;53.544;10.226;2023-12-07T06:20:05;1.90;99.90
4725;DHT22;2376;53.544;10.226;2023-12-07T06:22:32;1.90;99.90
4725;DHT22;2376;53.544;10.226;2023-12-07T06:24:58;1.90;99.90
4725;DHT22;2376;53.544;10.226;2023-12-07T06:27:27;1.90;99.90
4725;DHT22;2376;53.544;10.226;2023-12-07T06:29:54;2.00;99.90
4725;DHT22;2376;53.544;10.226;2023-12-07T06:32:20;2.00;99.90
4725;DHT22;2376;53.544;10.226;2023-12-07T06:34:47;2.00;99.90
4725;DHT22;2376;53.544;10.226;2023-12-07T06:37:14;2.00;99.90
4725;DHT22;2376;53.544;10.226;2023-12-07T06:39:40;2.00;99.90
4725;DHT22;2376;53.544;10.226;2023-12-07T06:42:07;2.00;99.90
4725;DHT22;2376;53.544;10.226;2023-12-07T06:44:35;2.00;99.90
4725;DHT22;2376;53.544;10.226;2023-12-07T06:47:02;2.00;99.90
4725;DHT22;2376;53.544;10.226;2023-12-07T06:49:30;2.00;99.90
4725;DHT22;2376;53.544;10.226;2023-12-07T06:51:56;2.00;99.90
4725;DHT22;2376;53.544;10.226;2023-12-07T06:54:23;2.00;99.90
4725;DHT22;2376;53.544;10.226;2023-12-07T06:56:50;2.00;99.90
4725;DHT22;2376;53.544;10.226;2023-12-07T06:59:17;2.00;99.90
4725;DHT22;2376;53.544;10.226;2023-12-07T07:01:45;2.00;99.90
4725;DHT22;2376;53.544;10.226;2023-12-07T07:04:12;2.00;99.90
4725;DHT22;2376;53.544;10.226;2023-12-07T07:06:40;2.00;99.90
4725;DHT22;2376;53.544;10.226;2023-12-07T07:09:07;2.00;99.90
4725;DHT22;2376;53.544;10.226;2023-12-07T07:11:34;2.00;99.90
4725;DHT22;2376;53.544;10.226;2023-12-07T07:14:00;2.00;99.90
4725;DHT22;2376;53.544;10.226;2023-12-07T07:16:27;2.00;99.90
4725;DHT22;2376;53.544;10.226;2023-12-07T07:18:55;2.00;99.90
4725;DHT22;2376;53.544;10.226;2023-12-07T07:21:22;2.00;99.90
4725;DHT22;2376;53.544;10.226;2023-12-07T07:23:49;2.00;99.90
4725;DHT22;2376;53.544;10.226;2023-12-07T07:26:15;2.00;99.90
4725;DHT22;2376;53.544;10.226;2023-12-07T07:28:43;2.00;99.90
4725;DHT22;2376;53.544;10.226;2023-12-07T07:31:09;2.00;99.90
4725;DHT22;2376;53.544;10.226;2023-12-07T07:33:36;2.00;99.90
4725;DHT22;2376;53.544;10.226;2023-12-07T07:36:04;2.00;99.90
4725;DHT22;2376;53.544;10.226;2023-12-07T07:38:31;2.00;99.90
4725;DHT22;2376;53.544;10.226;2023-12-07T07:40:58;2.00;99.90
4725;DHT22;2376;53.544;10.226;2023-12-07T07:43:25;2.00;99.90
4725;DHT22;2376;53.544;10.226;2023-12-07T07:45:51;2.00;99.90
4725;DHT22;2376;53.544;10.226;2023-12-07T07:48:18;2.10;99.90
4725;DHT22;2376;53.544;10.226;2023-12-07T07:50:45;2.10;99.90
4725;DHT22;2376;53.544;10.226;2023-12-07T07:53:13;2.10;99.90
4725;DHT22;2376;53.544;10.226;2023-12-07T07:55:39;2.10;99.90
4725;DHT22;2376;53.544;10.226;2023-12-07T07:58:08;2.10;99.90
4725;DHT22;2376;53.544;10.226;2023-12-07T08:00:35;2.10;99.90
4725;DHT22;2376;53.544;10.226;2023-12-07T08:03:02;2.10;99.90
4725;DHT22;2376;53.544;10.226;2023-12-07T08:05:29;2.10;99.90
4725;DHT22;2376;53.544;10.226;2023-12-07T08:07:55;2.10;99.90
4725;DHT22;2376;53.544;10.226;2023-12-07T08:10:23;2.10;99.90
4725;DHT22;2376;53.544;10.226;2023-12-07T08:12:50;2.10;99.90
4725;DHT22;2376;53.544;10.226;2023-12-07T08:15:17;2.10;99.90
4725;DHT22;2376;53.544;10.226;2023-12-07T08:17:43;2.20;99.90
4725;DHT22;2376;53.544;10.226;2023-12-07T08:20:11;2.20;99.90
4725;DHT22;2376;53.544;10.226;2023-12-07T08:22:38;2.20;99.90
4725;DHT22;2376;53.544;10.226;2023-12-07T08:25:05;2.20;99.90
4725;DHT22;2376;53.544;10.226;2023-12-07T08:27:34;2.20;99.90
4725;DHT22;2376;53.544;10.226;2023-12-07T08:30:01;2.20;99.90
4725;DHT22;2376;53.544;10.226;2023-12-07T08:32:28;2.30;99.90
4725;DHT22;2376;53.544;10.226;2023-12-07T08:34:55;2.30;99.90
4725;DHT22;2376;53.544;10.226;2023-12-07T08:37:22;2.30;99.90
4725;DHT22;2376;53.544;10.226;2023-12-07T08:39:49;2.30;99.90
4725;DHT22;2376;53.544;10.226;2023-12-07T08:42:15;2.30;99.90
4725;DHT22;2376;53.544;10.226;2023-12-07T08:44:44;2.40;99.90
4725;DHT22;2376;53.544;10.226;2023-12-07T08:47:11;2.40;99.90
4725;DHT22;2376;53.544;10.226;2023-12-07T08:49:37;2.40;99.90
4725;DHT22;2376;53.544;10.226;2023-12-07T08:52:04;2.40;99.90
4725;DHT22;2376;53.544;10.226;2023-12-07T08:54:31;2.40;99.90
4725;DHT22;2376;53.544;10.226;2023-12-07T08:56:59;2.50;99.90
4725;DHT22;2376;53.544;10.226;2023-12-07T08:59:25;2.50;99.90
4725;DHT22;2376;53.544;10.226;2023-12-07T09:01:53;2.50;99.90
4725;DHT22;2376;53.544;10.226;2023-12-07T09:04:20;2.50;99.90
4725;DHT22;2376;53.544;10.226;2023-12-07T09:06:47;2.50;99.90
4725;DHT22;2376;53.544;10.226;2023-12-07T09:09:13;2.50;99.90
4725;DHT22;2376;53.544;10.226;2023-12-07T09:11:40;2.50;99.90
4725;DHT22;2376;53.544;10.226;2023-12-07T09:14:07;2.60;99.90
4725;DHT22;2376;53.544;10.226;2023-12-07T09:16:34;2.60;99.90
4725;DHT22;2376;53.544;10.226;2023-12-07T09:19:02;2.60;99.90
4725;DHT22;2376;53.544;10.226;2023-12-07T09:21:29;2.60;99.90
4725;DHT22;2376;53.544;10.226;2023-12-07T09:23:55;2.70;99.90
4725;DHT22;2376;53.544;10.226;2023-12-07T09:26:22;2.70;99.90
4725;DHT22;2376;53.544;10.226;2023-12-07T09:28:49;2.70;99.90
4725;DHT22;2376;53.544;10.226;2023-12-07T09:31:15;2.70;99.90
4725;DHT22;2376;53.544;10.226;2023-12-07T09:33:42;2.70;99.90
4725;DHT22;2376;53.544;10.226;2023-12-07T09:36:10;2.70;99.90
4725;DHT22;2376;53.544;10.226;2023-12-07T09:38:37;2.70;99.90
4725;DHT22;2376;53.544;10.226;2023-12-07T09:41:04;2.80;99.90
4725;DHT22;2376;53.544;10.226;2023-12-07T09:43:31;2.70;99.90
4725;DHT22;2376;53.544;10.226;2023-12-07T09:45:58;2.80;99.90
4725;DHT22;2376;53.544;10.226;2023-12-07T09:48:25;2.80;99.90
4725;DHT22;2376;53.544;10.226;2023-12-07T09:50:52;2.80;99.90
4725;DHT22;2376;53.544;10.226;2023-12-07T09:53:20;2.80;99.90
4725;DHT22;2376;53.544;10.226;2023-12-07T09:55:47;2.80;99.90
4725;DHT22;2376;53.544;10.226;2023-12-07T09:58:14;2.80;99.90
4725;DHT22;2376;53.544;10.226;2023-12-07T10:00:41;2.80;99.90
4725;DHT22;2376;53.544;10.226;2023-12-07T10:03:09;2.90;99.90
4725;DHT22;2376;53.544;10.226;2023-12-07T10:05:56;2.90;99.90
4725;DHT22;2376;53.544;10.226;2023-12-07T10:08:28;2.90;99.90
4725;DHT22;2376;53.544;10.226;2023-12-07T10:11:08;2.90;99.90
4725;DHT22;2376;53.544;10.226;2023-12-07T10:13:35;2.90;99.90
4725;DHT22;2376;53.544;10.226;2023-12-07T10:16:10;2.90;99.90
4725;DHT22;2376;53.544;10.226;2023-12-07T10:18:37;2.90;99.90
4725;DHT22;2376;53.544;10.226;2023-12-07T10:21:06;2.90;99.90
4725;DHT22;2376;53.544;10.226;2023-12-07T10:23:35;2.90;99.90
4725;DHT22;2376;53.544;10.226;2023-12-07T10:26:02;2.90;99.90
4725;DHT22;2376;53.544;10.226;2023-12-07T10:28:29;3.00;99.90
4725;DHT22;2376;53.544;10.226;2023-12-07T10:30:57;3.00;99.90
4725;DHT22;2376;53.544;10.226;2023-12-07T10:33:23;2.90;99.90
4725;DHT22;2376;53.544;10.226;2023-12-07T10:35:52;3.00;99.90
4725;DHT22;2376;53.544;10.226;2023-12-07T10:38:18;3.00;99.90
4725;DHT22;2376;53.544;10.226;2023-12-07T10:40:47;3.00;99.90
4725;DHT22;2376;53.544;10.226;2023-12-07T10:43:16;3.00;99.90
4725;DHT22;2376;53.544;10.226;2023-12-07T10:45:47;3.00;99.90
4725;DHT22;2376;53.544;10.226;2023-12-07T10:48:14;3.00;99.90
4725;DHT22;2376;53.544;10.226;2023-12-07T10:50:42;3.10;99.90
4725;DHT22;2376;53.544;10.226;2023-12-07T10:53:11;3.00;99.90
4725;DHT22;2376;53.544;10.226;2023-12-07T10:55:49;3.00;99.90
4725;DHT22;2376;53.544;10.226;2023-12-07T10:58:21;3.00;99.90
4725;DHT22;2376;53.544;10.226;2023-12-07T11:00:51;3.00;99.90
4725;DHT22;2376;53.544;10.226;2023-12-07T11:03:18;3.00;99.90
4725;DHT22;2376;53.544;10.226;2023-12-07T11:05:46;3.00;99.90
4725;DHT22;2376;53.544;10.226;2023-12-07T11:08:20;3.10;99.90
4725;DHT22;2376;53.544;10.226;2023-12-07T11:10:53;3.10;99.90
4725;DHT22;2376;53.544;10.226;2023-12-07T11:13:29;3.10;99.90
4725;DHT22;2376;53.544;10.226;2023-12-07T11:15:57;3.10;99.90
4725;DHT22;2376;53.544;10.226;2023-12-07T11:18:25;3.20;99.90
4725;DHT22;2376;53.544;10.226;2023-12-07T11:20:52;3.10;99.90
4725;DHT22;2376;53.544;10.226;2023-12-07T11:23:20;3.20;99.90
4725;DHT22;2376;53.544;10.226;2023-12-07T11:25:48;3.20;99.90
4725;DHT22;2376;53.544;10.226;2023-12-07T11:28:15;3.20;99.90
4725;DHT22;2376;53.544;10.226;2023-12-07T11:30:45;3.20;99.90
4725;DHT22;2376;53.544;10.226;2023-12-07T11:33:13;3.20;99.90
4725;DHT22;2376;53.544;10.226;2023-12-07T11:36:03;3.20;99.90
4725;DHT22;2376;53.544;10.226;2023-12-07T11:38:30;3.20;99.90
4725;DHT22;2376;53.544;10.226;2023-12-07T11:40:57;3.20;99.90
4725;DHT22;2376;53.544;10.226;2023-12-07T11:43:37;3.20;99.90
4725;DHT22;2376;53.544;10.226;2023-12-07T11:46:11;3.20;99.90
4725;DHT22;2376;53.544;10.226;2023-12-07T11:48:38;3.20;99.90
4725;DHT22;2376;53.544;10.226;2023-12-07T11:51:06;3.20;99.90
4725;DHT22;2376;53.544;10.226;2023-12-07T11:53:34;3.20;99.90
4725;DHT22;2376;53.544;10.226;2023-12-07T11:56:03;3.20;99.90
4725;DHT22;2376;53.544;10.226;2023-12-07T11:58:31;3.20;99.90
4725;DHT22;2376;53.544;10.226;2023-12-07T12:00:58;3.20;99.90
4725;DHT22;2376;53.544;10.226;2023-12-07T12:03:27;3.20;99.90
4725;DHT22;2376;53.544;10.226;2023-12-07T12:05:54;3.20;99.90
4725;DHT22;2376;53.544;10.226;2023-12-07T12:08:21;3.20;99.90
4725;DHT22;2376;53.544;10.226;2023-12-07T12:10:50;3.20;99.90
4725;DHT22;2376;53.544;10.226;2023-12-07T12:13:17;3.20;99.90
4725;DHT22;2376;53.544;10.226;2023-12-07T12:15:45;3.20;99.90
4725;DHT22;2376;53.544;10.226;2023-12-07T12:18:12;3.20;99.90
4725;DHT22;2376;53.544;10.226;2023-12-07T12:20:40;3.20;99.90
4725;DHT22;2376;53.544;10.226;2023-12-07T12:23:08;3.20;99.90
4725;DHT22;2376;53.544;10.226;2023-12-07T12:25:35;3.30;99.90
4725;DHT22;2376;53.544;10.226;2023-12-07T12:28:03;3.30;99.90
4725;DHT22;2376;53.544;10.226;2023-12-07T12:30:31;3.30;99.90
4725;DHT22;2376;53.544;10.226;2023-12-07T12:32:59;3.30;99.90
4725;DHT22;2376;53.544;10.226;2023-12-07T12:35:26;3.30;99.90
4725;DHT22;2376;53.544;10.226;2023-12-07T12:37:55;3.30;99.90
4725;DHT22;2376;53.544;10.226;2023-12-07T12:40:22;3.30;99.90
4725;DHT22;2376;53.544;10.226;2023-12-07T12:42:50;3.30;99.90
4725;DHT22;2376;53.544;10.226;2023-12-07T12:45:17;3.30;99.90
4725;DHT22;2376;53.544;10.226;2023-12-07T12:47:45;3.40;99.90
4725;DHT22;2376;53.544;10.226;2023-12-07T12:50:32;3.30;99.90
4725;DHT22;2376;53.544;10.226;2023-12-07T12:53:03;3.40;99.90
4725;DHT22;2376;53.544;10.226;2023-12-07T12:55:31;3.40;99.90
4725;DHT22;2376;53.544;10.226;2023-12-07T12:57:58;3.40;99.90
4725;DHT22;2376;53.544;10.226;2023-12-07T13:00:25;3.30;99.90
4725;DHT22;2376;53.544;10.226;2023-12-07T13:02:52;3.30;99.90
4725;DHT22;2376;53.544;10.226;2023-12-07T13:05:19;3.30;99.90
4725;DHT22;2376;53.544;10.226;2023-12-07T13:07:46;3.30;99.90
4725;DHT22;2376;53.544;10.226;2023-12-07T13:10:15;3.30;99.90
4725;DHT22;2376;53.544;10.226;2023-12-07T13:12:42;3.30;99.90
4725;DHT22;2376;53.544;10.226;2023-12-07T13:15:09;3.30;99.90
4725;DHT22;2376;53.544;10.226;2023-12-07T13:17:36;3.30;99.90
4725;DHT22;2376;53.544;10.226;2023-12-07T13:20:04;3.40;99.90
4725;DHT22;2376;53.544;10.226;2023-12-07T13:22:31;3.40;99.90
4725;DHT22;2376;53.544;10.226;2023-12-07T13:24:58;3.20;99.90
4725;DHT22;2376;53.544;10.226;2023-12-07T13:27:26;3.20;99.90
4725;DHT22;2376;53.544;10.226;2023-12-07T13:29:53;3.20;99.90
4725;DHT22;2376;53.544;10.226;2023-12-07T13:32:20;3.20;99.90
4725;DHT22;2376;53.544;10.226;2023-12-07T13:34:47;3.20;99.90
4725;DHT22;2376;53.544;10.226;2023-12-07T13:37:14;3.20;99.90
4725;DHT22;2376;53.544;10.226;2023-12-07T13:39:40;3.20;99.90
4725;DHT22;2376;53.544;10.226;2023-12-07T13:42:08;3.20;99.90
4725;DHT22;2376;53.544;10.226;2023-12-07T13:44:36;3.20;99.90
4725;DHT22;2376;53.544;10.226;2023-12-07T13:47:03;3.10;99.90
4725;DHT22;2376;53.544;10.226;2023-12-07T13:49:30;3.10;99.90
4725;DHT22;2376;53.544;10.226;2023-12-07T13:51:56;3.10;99.90
4725;DHT22;2376;53.544;10.226;2023-12-07T13:54:25;3.10;99.90
4725;DHT22;2376;53.544;10.226;2023-12-07T13:56:52;3.00;99.90
4725;DHT22;2376;53.544;10.226;2023-12-07T13:59:18;3.10;99.90
4725;DHT22;2376;53.544;10.226;2023-12-07T14:01:47;3.10;99.90
4725;DHT22;2376;53.544;10.226;2023-12-07T14:04:13;3.10;99.90
4725;DHT22;2376;53.544;10.226;2023-12-07T14:06:40;3.10;99.90
4725;DHT22;2376;53.544;10.226;2023-12-07T14:09:07;3.10;99.90
4725;DHT22;2376;53.544;10.226;2023-12-07T14:11:33;3.10;99.90
4725;DHT22;2376;53.544;10.226;2023-12-07T14:14:00;3.00;99.90
4725;DHT22;2376;53.544;10.226;2023-12-07T14:16:29;2.90;99.90
4725;DHT22;2376;53.544;10.226;2023-12-07T14:18:57;2.90;99.90
4725;DHT22;2376;53.544;10.226;2023-12-07T14:21:24;2.90;99.90
4725;DHT22;2376;53.544;10.226;2023-12-07T14:23:50;2.90;99.90
4725;DHT22;2376;53.544;10.226;2023-12-07T14:26:19;2.90;99.90
4725;DHT22;2376;53.544;10.226;2023-12-07T14:28:46;2.90;99.90
4725;DHT22;2376;53.544;10.226;2023-12-07T14:31:14;2.90;99.90
4725;DHT22;2376;53.544;10.226;2023-12-07T14:33:43;2.90;99.90
4725;DHT22;2376;53.544;10.226;2023-12-07T14:36:11;2.90;99.90
4725;DHT22;2376;53.544;10.226;2023-12-07T14:38:39;2.90;99.90
4725;DHT22;2376;53.544;10.226;2023-12-07T14:41:07;2.80;99.90
4725;DHT22;2376;53.544;10.226;2023-12-07T14:43:33;2.90;99.90
4725;DHT22;2376;53.544;10.226;2023-12-07T14:46:00;2.80;99.90
4725;DHT22;2376;53.544;10.226;2023-12-07T14:48:28;2.60;99.90
4725;DHT22;2376;53.544;10.226;2023-12-07T14:50:55;2.50;99.90
4725;DHT22;2376;53.544;10.226;2023-12-07T14:53:23;2.50;99.90
4725;DHT22;2376;53.544;10.226;2023-12-07T14:55:51;2.40;99.90
4725;DHT22;2376;53.544;10.226;2023-12-07T14:58:18;2.50;99.90
4725;DHT22;2376;53.544;10.226;2023-12-07T15:00:45;2.50;99.90
4725;DHT22;2376;53.544;10.226;2023-12-07T15:03:12;2.60;99.90
4725;DHT22;2376;53.544;10.226;2023-12-07T15:05:39;2.60;99.90
4725;DHT22;2376;53.544;10.226;2023-12-07T15:08:06;2.50;99.90
4725;DHT22;2376;53.544;10.226;2023-12-07T15:10:34;2.60;99.90
4725;DHT22;2376;53.544;10.226;2023-12-07T15:13:01;2.60;99.90
4725;DHT22;2376;53.544;10.226;2023-12-07T15:15:28;2.60;99.90
4725;DHT22;2376;53.544;10.226;2023-12-07T15:17:55;2.60;99.90
4725;DHT22;2376;53.544;10.226;2023-12-07T15:20:22;2.70;99.90
4725;DHT22;2376;53.544;10.226;2023-12-07T15:22:49;2.80;99.90
4725;DHT22;2376;53.544;10.226;2023-12-07T15:25:16;2.70;99.90
4725;DHT22;2376;53.544;10.226;2023-12-07T15:27:44;2.70;99.90
4725;DHT22;2376;53.544;10.226;2023-12-07T15:30:12;2.70;99.90
4725;DHT22;2376;53.544;10.226;2023-12-07T15:32:39;2.70;99.90
4725;DHT22;2376;53.544;10.226;2023-12-07T15:35:06;2.70;99.90
4725;DHT22;2376;53.544;10.226;2023-12-07T15:37:33;2.70;99.90
4725;DHT22;2376;53.544;10.226;2023-12-07T15:40:00;2.70;99.90
4725;DHT22;2376;53.544;10.226;2023-12-07T15:42:26;2.80;99.90
4725;DHT22;2376;53.544;10.226;2023-12-07T15:44:54;2.80;99.90
4725;DHT22;2376;53.544;10.226;2023-12-07T15:47:21;2.80;99.90
4725;DHT22;2376;53.544;10.226;2023-12-07T15:49:47;2.80;99.90
4725;DHT22;2376;53.544;10.226;2023-12-07T15:52:14;2.80;99.90
4725;DHT22;2376;53.544;10.226;2023-12-07T15:54:41;2.70;99.90
4725;DHT22;2376;53.544;10.226;2023-12-07T15:57:09;2.70;99.90
4725;DHT22;2376;53.544;10.226;2023-12-07T15:59:36;2.70;99.90
4725;DHT22;2376;53.544;10.226;2023-12-07T16:02:05;2.70;99.90
4725;DHT22;2376;53.544;10.226;2023-12-07T16:04:32;2.70;99.90